Time;durP1;ratioP1;P1;durP2;ratioP2;P2;SDS_P1;SDS_P2;PMS_P1;PMS_P2;Temp;Humidity;BMP_temperature;BMP_pressure;BME280_temperature;BME280_humidity;BME280_pressure;Samples;Min_cycle;Max_cycle;Signal;HPM_P1;HPM_P2
2022/03/01 00:02:16;;;;;;;;;;;0.20;67.60;;;;;;5081807;28;19909;-69
2022/03/01 00:04:42;;;;;;;;;;;0.20;67.90;;;;;;5082209;28;19942;-69
2022/03/01 00:07:07;;;;;;;;;;;0.20;67.90;;;;;;5081935;28;19920;-69
2022/03/01 00:09:34;;;;;;;;;;;0.20;68.30;;;;;;5081747;28;20212;-69
2022/03/01 00:12:00;;;;;;;;;;;0.10;68.20;;;;;;5081647;28;19909;-68
2022/03/01 00:14:25;;;;;;;;;;;0.10;68.50;;;;;;5082081;28;19908;-68
2022/03/01 00:16:51;;;;;;;;;;;0.00;68.30;;;;;;5074822;28;19967;-69
2022/03/01 00:19:17;;;;;;;;;;;0.10;68.80;;;;;;5081945;28;20187;-69
2022/03/01 00:21:42;;;;;;;;;;;0.00;68.90;;;;;;5080626;28;19987;-69
2022/03/01 00:24:08;;;;;;;;;;;0.00;69.10;;;;;;5081802;28;19979;-69
2022/03/01 00:26:34;;;;;;;;;;;0.00;69.20;;;;;;5081941;28;19975;-69
2022/03/01 00:28:59;;;;;;;;;;;-0.10;69.60;;;;;;5081715;28;19939;-69
2022/03/01 00:31:25;;;;;;;;;;;-0.20;70.10;;;;;;5081577;28;19971;-69
2022/03/01 00:33:51;;;;;;;;;;;-0.30;70.50;;;;;;5082076;28;19908;-68
2022/03/01 00:36:16;;;;;;;;;;;-0.20;70.50;;;;;;5081965;28;19943;-69
2022/03/01 00:38:42;;;;;;;;;;;-0.20;70.60;;;;;;5080959;28;19924;-69
2022/03/01 00:41:08;;;;;;;;;;;-0.20;70.40;;;;;;5081561;28;19908;-69
2022/03/01 00:43:33;;;;;;;;;;;-0.30;70.40;;;;;;5081710;28;19946;-69
2022/03/01 00:45:59;;;;;;;;;;;-0.30;70.50;;;;;;5081719;28;19908;-69
2022/03/01 00:48:25;;;;;;;;;;;-0.30;70.50;;;;;;5081571;28;19920;-69
2022/03/01 00:50:50;;;;;;;;;;;-0.30;70.60;;;;;;5081491;28;20084;-69
2022/03/01 00:53:16;;;;;;;;;;;-0.30;70.60;;;;;;5084120;28;19943;-69
2022/03/01 00:55:42;;;;;;;;;;;-0.40;71.00;;;;;;5085244;28;19917;-69
2022/03/01 00:58:08;;;;;;;;;;;-0.40;70.90;;;;;;5084756;28;19923;-69
2022/03/01 01:00:34;;;;;;;;;;;-0.40;70.40;;;;;;5085254;28;19926;-69
2022/03/01 01:03:00;;;;;;;;;;;-0.40;70.00;;;;;;5083994;28;19934;-69
2022/03/01 01:05:25;;;;;;;;;;;-0.40;70.00;;;;;;5083963;28;20222;-66
2022/03/01 01:07:52;;;;;;;;;;;-0.40;69.80;;;;;;5084637;28;19909;-67
2022/03/01 01:10:17;;;;;;;;;;;-0.40;69.50;;;;;;5084974;28;19916;-67
2022/03/01 01:12:43;;;;;;;;;;;-0.40;69.40;;;;;;5084676;28;20226;-67
2022/03/01 01:15:09;;;;;;;;;;;-0.30;69.70;;;;;;5084923;28;20019;-67
2022/03/01 01:17:35;;;;;;;;;;;-0.30;68.50;;;;;;5084860;28;19930;-67
2022/03/01 01:20:01;;;;;;;;;;;-0.30;68.20;;;;;;5084816;28;19975;-67
2022/03/01 01:22:41;;;;;;;;;;;-0.30;68.30;;;;;;5084553;28;20145;-68
2022/03/01 01:25:18;;;;;;;;;;;-0.40;68.70;;;;;;5084361;28;19920;-68
2022/03/01 01:27:46;;;;;;;;;;;-0.40;69.40;;;;;;5084585;28;20013;-68
2022/03/01 01:30:14;;;;;;;;;;;-0.40;69.20;;;;;;5084547;28;19909;-68
2022/03/01 01:32:40;;;;;;;;;;;-0.40;69.50;;;;;;5084378;28;19962;-69
2022/03/01 01:35:07;;;;;;;;;;;-0.40;69.90;;;;;;5083414;28;19916;-68
2022/03/01 01:37:33;;;;;;;;;;;-0.50;70.10;;;;;;5083699;28;20105;-69
2022/03/01 01:39:59;;;;;;;;;;;-0.50;70.10;;;;;;5084095;28;19915;-69
2022/03/01 01:42:24;;;;;;;;;;;-0.50;70.60;;;;;;5084157;28;19916;-68
2022/03/01 01:44:50;;;;;;;;;;;-0.50;70.90;;;;;;5084360;28;19943;-69
2022/03/01 01:47:16;;;;;;;;;;;-0.50;71.50;;;;;;5084282;28;20245;-69
2022/03/01 01:49:41;;;;;;;;;;;-0.60;72.00;;;;;;5084207;28;19952;-69
2022/03/01 01:52:07;;;;;;;;;;;-0.70;72.80;;;;;;5083878;28;19954;-68
2022/03/01 01:54:33;;;;;;;;;;;-0.60;72.90;;;;;;5084040;28;19916;-69
2022/03/01 01:56:59;;;;;;;;;;;-0.70;73.20;;;;;;5083816;28;19979;-68
2022/03/01 01:59:24;;;;;;;;;;;-0.70;73.30;;;;;;5082933;28;19958;-68
2022/03/01 02:01:50;;;;;;;;;;;-0.80;73.00;;;;;;5083768;28;20107;-68
2022/03/01 02:04:16;;;;;;;;;;;-0.80;72.60;;;;;;5083850;28;19908;-68
2022/03/01 02:06:52;;;;;;;;;;;-0.70;71.90;;;;;;5083918;28;19979;-68
2022/03/01 02:09:17;;;;;;;;;;;-0.70;71.90;;;;;;5082625;28;19920;-68
2022/03/01 02:11:43;;;;;;;;;;;-0.80;72.30;;;;;;5082526;28;20003;-68
2022/03/01 02:14:09;;;;;;;;;;;-0.80;73.60;;;;;;5083733;28;20261;-68
2022/03/01 02:16:35;;;;;;;;;;;-0.80;73.30;;;;;;5083815;28;19983;-68
2022/03/01 02:19:01;;;;;;;;;;;-0.80;74.20;;;;;;5083561;28;19944;-68
2022/03/01 02:21:26;;;;;;;;;;;-0.90;73.40;;;;;;5083241;28;19916;-68
2022/03/01 02:23:52;;;;;;;;;;;-0.90;73.40;;;;;;5083317;28;19947;-68
2022/03/01 02:26:18;;;;;;;;;;;-0.90;73.60;;;;;;5083527;28;19908;-68
2022/03/01 02:28:43;;;;;;;;;;;-0.90;73.90;;;;;;5083329;28;19980;-67
2022/03/01 02:31:09;;;;;;;;;;;-0.90;73.80;;;;;;5083426;28;20093;-67
2022/03/01 02:33:35;;;;;;;;;;;-1.00;73.60;;;;;;5083385;28;19953;-68
2022/03/01 02:36:00;;;;;;;;;;;-1.00;73.90;;;;;;5083574;28;19909;-67
2022/03/01 02:38:26;;;;;;;;;;;-1.00;74.40;;;;;;5082455;28;20151;-68
2022/03/01 02:40:52;;;;;;;;;;;-1.00;74.60;;;;;;5082893;28;19915;-69
2022/03/01 02:43:17;;;;;;;;;;;-1.00;74.60;;;;;;5082993;28;20262;-69
2022/03/01 02:45:43;;;;;;;;;;;-1.10;74.90;;;;;;5083167;28;19927;-68
2022/03/01 02:48:09;;;;;;;;;;;-1.10;75.30;;;;;;5082714;28;20135;-68
2022/03/01 02:50:34;;;;;;;;;;;-1.20;75.50;;;;;;5082877;28;19916;-68
2022/03/01 02:53:00;;;;;;;;;;;-1.20;75.40;;;;;;5082985;28;19909;-68
2022/03/01 02:55:26;;;;;;;;;;;-1.10;75.90;;;;;;5082925;28;19961;-68
2022/03/01 02:57:51;;;;;;;;;;;-1.20;75.80;;;;;;5082385;28;19916;-68
2022/03/01 03:00:17;;;;;;;;;;;-1.30;75.90;;;;;;5082713;28;20096;-69
2022/03/01 03:02:43;;;;;;;;;;;-1.20;76.10;;;;;;5082636;28;19943;-67
2022/03/01 03:05:09;;;;;;;;;;;-1.30;76.30;;;;;;5082845;28;19938;-67
2022/03/01 03:07:35;;;;;;;;;;;-1.20;76.40;;;;;;5082722;28;19917;-68
2022/03/01 03:10:01;;;;;;;;;;;-1.30;77.10;;;;;;5082487;28;19912;-68
2022/03/01 03:12:26;;;;;;;;;;;-1.40;77.40;;;;;;5081322;28;20286;-68
2022/03/01 03:14:52;;;;;;;;;;;-1.50;77.60;;;;;;5081066;28;19916;-67
2022/03/01 03:17:18;;;;;;;;;;;-1.50;78.00;;;;;;5082563;28;19951;-67
2022/03/01 03:19:43;;;;;;;;;;;-1.60;78.60;;;;;;5082608;28;19912;-68
2022/03/01 03:22:09;;;;;;;;;;;-1.70;78.70;;;;;;5082356;28;19947;-67
2022/03/01 03:24:35;;;;;;;;;;;-1.70;78.80;;;;;;5082348;28;19915;-67
2022/03/01 03:27:00;;;;;;;;;;;-1.60;79.00;;;;;;5082504;28;19909;-67
2022/03/01 03:29:26;;;;;;;;;;;-1.70;79.80;;;;;;5082444;28;19920;-67
2022/03/01 03:31:56;;;;;;;;;;;-1.80;79.70;;;;;;5082294;28;19908;-67
2022/03/01 03:34:23;;;;;;;;;;;-1.80;79.70;;;;;;5082546;28;19908;-67
2022/03/01 03:36:48;;;;;;;;;;;-1.90;80.20;;;;;;5082274;28;19909;-67
2022/03/01 03:39:14;;;;;;;;;;;-1.90;80.20;;;;;;5080413;28;20163;-67
2022/03/01 03:41:40;;;;;;;;;;;-2.00;80.70;;;;;;5082144;28;19909;-67
2022/03/01 03:44:06;;;;;;;;;;;-2.00;80.80;;;;;;5082318;28;19909;-68
2022/03/01 03:46:31;;;;;;;;;;;-2.00;80.90;;;;;;5081237;28;19915;-66
2022/03/01 03:48:57;;;;;;;;;;;-2.00;81.10;;;;;;5082286;28;19924;-67
2022/03/01 03:51:26;;;;;;;;;;;-2.00;81.00;;;;;;5082105;28;19967;-68
2022/03/01 03:53:52;;;;;;;;;;;-2.00;80.70;;;;;;5082064;28;20146;-67
2022/03/01 03:56:18;;;;;;;;;;;-2.10;80.50;;;;;;5081840;28;19913;-66
2022/03/01 03:58:43;;;;;;;;;;;-2.10;80.20;;;;;;5081126;28;19916;-68
2022/03/01 04:01:09;;;;;;;;;;;-2.10;79.40;;;;;;5082061;28;19916;-67
2022/03/01 04:03:35;;;;;;;;;;;-2.10;79.30;;;;;;5082016;28;19915;-67
2022/03/01 04:06:01;;;;;;;;;;;-2.10;79.30;;;;;;5082274;28;19912;-67
2022/03/01 04:08:27;;;;;;;;;;;-2.10;79.20;;;;;;5081763;28;20233;-67
2022/03/01 04:10:54;;;;;;;;;;;-2.10;79.70;;;;;;5082051;28;19912;-68
2022/03/01 04:13:20;;;;;;;;;;;-2.10;79.60;;;;;;5082090;28;19921;-68
2022/03/01 04:15:46;;;;;;;;;;;-2.10;79.30;;;;;;5081940;28;19979;-68
2022/03/01 04:18:12;;;;;;;;;;;-2.10;79.10;;;;;;5080628;28;20180;-69
2022/03/01 04:20:37;;;;;;;;;;;-2.20;80.10;;;;;;5085205;28;19916;-68
2022/03/01 04:23:03;;;;;;;;;;;-2.20;80.20;;;;;;5082013;28;19909;-68
2022/03/01 04:25:29;;;;;;;;;;;-2.20;80.10;;;;;;5080692;28;20215;-68
2022/03/01 04:27:54;;;;;;;;;;;-2.20;79.90;;;;;;5084022;28;20005;-67
2022/03/01 04:30:20;;;;;;;;;;;-2.20;79.80;;;;;;5085711;28;19912;-68
2022/03/01 04:32:46;;;;;;;;;;;-2.20;79.80;;;;;;5085430;28;19909;-68
2022/03/01 04:35:12;;;;;;;;;;;-2.20;79.60;;;;;;5085693;28;19916;-68
2022/03/01 04:37:38;;;;;;;;;;;-2.20;79.50;;;;;;5084707;28;20087;-68
2022/03/01 04:40:05;;;;;;;;;;;-2.20;79.30;;;;;;5084177;28;19963;-68
2022/03/01 04:42:31;;;;;;;;;;;-2.20;79.70;;;;;;5085288;28;19908;-68
2022/03/01 04:44:57;;;;;;;;;;;-2.20;79.80;;;;;;5085532;28;19991;-68
2022/03/01 04:47:22;;;;;;;;;;;-2.30;79.80;;;;;;5085418;28;19909;-68
2022/03/01 04:49:48;;;;;;;;;;;-2.30;80.30;;;;;;5084298;28;19917;-68
2022/03/01 04:52:13;;;;;;;;;;;-2.30;79.80;;;;;;5084994;28;19916;-68
2022/03/01 04:54:39;;;;;;;;;;;-2.30;80.10;;;;;;5085085;28;20234;-68
2022/03/01 04:57:05;;;;;;;;;;;-2.30;80.00;;;;;;5084772;28;19919;-68
2022/03/01 04:59:30;;;;;;;;;;;-2.40;79.50;;;;;;5085222;28;19908;-68
2022/03/01 05:01:56;;;;;;;;;;;-2.40;79.70;;;;;;5084939;28;19909;-71
2022/03/01 05:04:22;;;;;;;;;;;-2.40;79.90;;;;;;5085073;28;19987;-68
2022/03/01 05:06:48;;;;;;;;;;;-2.40;80.00;;;;;;5085095;28;19954;-68
2022/03/01 05:09:13;;;;;;;;;;;-2.40;80.00;;;;;;5084811;28;19913;-68
2022/03/01 05:11:39;;;;;;;;;;;-2.30;79.70;;;;;;5084889;28;20242;-67
2022/03/01 05:14:05;;;;;;;;;;;-2.30;79.20;;;;;;5083893;28;20227;-67
2022/03/01 05:16:31;;;;;;;;;;;-2.20;79.10;;;;;;5084933;28;19927;-68
2022/03/01 05:18:56;;;;;;;;;;;-2.20;78.60;;;;;;5090589;28;20096;-68
2022/03/01 05:21:22;;;;;;;;;;;-2.10;78.60;;;;;;5104592;28;19988;-68
2022/03/01 05:23:48;;;;;;;;;;;-2.10;78.10;;;;;;5104792;28;19946;-68
2022/03/01 05:26:14;;;;;;;;;;;-2.10;78.60;;;;;;5104991;28;19909;-68
2022/03/01 05:28:39;;;;;;;;;;;-2.20;78.10;;;;;;5104823;28;19926;-69
2022/03/01 05:31:05;;;;;;;;;;;-2.20;78.10;;;;;;5104781;28;19908;-68
2022/03/01 05:33:31;;;;;;;;;;;-2.30;79.00;;;;;;5104746;28;20246;-68
2022/03/01 05:35:57;;;;;;;;;;;-2.30;78.30;;;;;;5104725;28;19908;-68
2022/03/01 05:38:23;;;;;;;;;;;-2.30;79.00;;;;;;5095347;28;19965;-68
2022/03/01 05:40:49;;;;;;;;;;;-2.40;78.70;;;;;;5084149;28;20222;-68
2022/03/01 05:43:14;;;;;;;;;;;-2.40;79.20;;;;;;5083993;28;19928;-68
2022/03/01 05:45:41;;;;;;;;;;;-2.40;79.20;;;;;;5083874;28;19997;-68
2022/03/01 05:48:07;;;;;;;;;;;-2.50;79.20;;;;;;5082785;28;19940;-69
2022/03/01 05:50:33;;;;;;;;;;;-2.40;79.40;;;;;;5084006;28;19958;-70
2022/03/01 05:52:59;;;;;;;;;;;-2.50;79.70;;;;;;5081533;28;19928;-69
2022/03/01 05:55:25;;;;;;;;;;;-2.50;79.80;;;;;;5075435;28;19921;-68
2022/03/01 05:57:50;;;;;;;;;;;-2.50;80.00;;;;;;5078191;28;19920;-68
2022/03/01 06:00:17;;;;;;;;;;;-2.60;80.10;;;;;;5073681;28;19913;-68
2022/03/01 06:02:44;;;;;;;;;;;-2.60;80.30;;;;;;5082356;28;19909;-68
2022/03/01 06:05:11;;;;;;;;;;;-2.50;79.70;;;;;;5083955;28;19923;-68
2022/03/01 06:07:37;;;;;;;;;;;-2.50;79.10;;;;;;5083774;28;19915;-68
2022/03/01 06:10:03;;;;;;;;;;;-2.40;78.70;;;;;;5083474;28;19912;-68
2022/03/01 06:12:29;;;;;;;;;;;-2.30;78.30;;;;;;5083566;28;20420;-68
2022/03/01 06:14:54;;;;;;;;;;;-2.30;78.40;;;;;;5083680;28;20046;-69
2022/03/01 06:17:20;;;;;;;;;;;-2.30;78.20;;;;;;5083910;28;19915;-70
2022/03/01 06:19:46;;;;;;;;;;;-2.30;78.20;;;;;;5083624;28;19915;-68
2022/03/01 06:22:11;;;;;;;;;;;-2.20;78.00;;;;;;5083576;28;19947;-68
2022/03/01 06:24:41;;;;;;;;;;;-2.20;77.60;;;;;;5082413;28;19944;-69
2022/03/01 06:27:07;;;;;;;;;;;-2.10;77.20;;;;;;5083846;28;19934;-69
2022/03/01 06:29:34;;;;;;;;;;;-2.10;77.20;;;;;;5083622;28;19927;-68
2022/03/01 06:31:59;;;;;;;;;;;-2.10;77.00;;;;;;5083499;28;19988;-68
2022/03/01 06:34:25;;;;;;;;;;;-2.00;77.60;;;;;;5083345;28;19908;-68
2022/03/01 06:36:51;;;;;;;;;;;-2.00;76.60;;;;;;5083231;28;19937;-68
2022/03/01 06:39:16;;;;;;;;;;;-2.00;76.80;;;;;;5082390;28;20019;-69
2022/03/01 06:41:42;;;;;;;;;;;-2.00;76.40;;;;;;5083011;28;19908;-69
2022/03/01 06:44:09;;;;;;;;;;;-1.90;76.30;;;;;;5084757;28;19924;-68
2022/03/01 06:46:35;;;;;;;;;;;-1.90;76.00;;;;;;5083324;28;19916;-69
2022/03/01 06:49:01;;;;;;;;;;;-1.80;75.80;;;;;;5082875;28;19972;-68
2022/03/01 06:51:27;;;;;;;;;;;-1.80;75.30;;;;;;5082315;28;19977;-69
2022/03/01 06:53:53;;;;;;;;;;;-1.70;75.20;;;;;;5083000;28;20118;-68
2022/03/01 06:56:19;;;;;;;;;;;-1.70;74.80;;;;;;5082437;28;19939;-68
2022/03/01 06:58:45;;;;;;;;;;;-1.60;74.40;;;;;;5083075;28;19975;-68
2022/03/01 07:01:10;;;;;;;;;;;-1.50;74.10;;;;;;5082899;28;19975;-68
2022/03/01 07:03:36;;;;;;;;;;;-1.50;74.40;;;;;;5082927;28;19947;-68
2022/03/01 07:06:02;;;;;;;;;;;-1.40;72.60;;;;;;5081941;28;19958;-68
2022/03/01 07:08:28;;;;;;;;;;;-1.30;72.70;;;;;;5083255;28;19913;-68
2022/03/01 07:10:53;;;;;;;;;;;-1.30;72.10;;;;;;5083099;28;19908;-68
2022/03/01 07:13:19;;;;;;;;;;;-1.20;72.20;;;;;;5082800;28;19962;-69
2022/03/01 07:15:45;;;;;;;;;;;-1.10;71.90;;;;;;5082738;28;19975;-69
2022/03/01 07:18:10;;;;;;;;;;;-1.10;71.00;;;;;;5082492;28;19909;-68
2022/03/01 07:20:36;;;;;;;;;;;-1.00;70.90;;;;;;5080936;28;19954;-68
2022/03/01 07:23:03;;;;;;;;;;;-0.90;70.50;;;;;;5082554;28;20007;-68
2022/03/01 07:25:28;;;;;;;;;;;-0.90;70.40;;;;;;5082347;28;19908;-68
2022/03/01 07:27:54;;;;;;;;;;;-0.90;69.70;;;;;;5082342;28;19923;-68
2022/03/01 07:30:22;;;;;;;;;;;-0.80;69.80;;;;;;5082361;28;19912;-68
2022/03/01 07:32:48;;;;;;;;;;;-0.70;69.50;;;;;;5081144;28;19936;-68
2022/03/01 07:35:13;;;;;;;;;;;-0.70;69.20;;;;;;5082324;28;20257;-68
2022/03/01 07:37:39;;;;;;;;;;;-0.60;69.20;;;;;;5081090;28;19924;-69
2022/03/01 07:40:08;;;;;;;;;;;-0.60;70.10;;;;;;5080939;28;19979;-69
2022/03/01 07:42:33;;;;;;;;;;;-0.60;70.60;;;;;;5082292;28;19909;-69
2022/03/01 07:44:59;;;;;;;;;;;-0.50;69.60;;;;;;5082467;28;19948;-68
2022/03/01 07:47:25;;;;;;;;;;;-0.40;68.00;;;;;;5082435;28;19971;-68
2022/03/01 07:49:50;;;;;;;;;;;-0.20;67.40;;;;;;5080970;28;19913;-67
2022/03/01 07:52:16;;;;;;;;;;;-0.20;67.50;;;;;;5081890;28;20314;-68
2022/03/01 07:54:42;;;;;;;;;;;-0.20;68.70;;;;;;5082068;28;19909;-67
2022/03/01 07:57:07;;;;;;;;;;;-0.20;67.90;;;;;;5081735;28;19908;-67
2022/03/01 07:59:33;;;;;;;;;;;0.00;66.90;;;;;;5082333;28;19931;-67
2022/03/01 08:01:59;;;;;;;;;;;0.00;66.20;;;;;;5084212;28;20109;-67
2022/03/01 08:04:24;;;;;;;;;;;0.10;66.60;;;;;;5086249;28;19908;-67
2022/03/01 08:06:50;;;;;;;;;;;0.20;65.40;;;;;;5086141;28;19975;-67
2022/03/01 08:09:16;;;;;;;;;;;0.30;64.90;;;;;;5084688;28;19965;-67
2022/03/01 08:11:42;;;;;;;;;;;0.30;64.20;;;;;;5084521;28;20103;-67
2022/03/01 08:14:07;;;;;;;;;;;0.40;63.90;;;;;;5086147;28;19916;-67
2022/03/01 08:16:33;;;;;;;;;;;0.50;64.00;;;;;;5086040;28;19931;-67
2022/03/01 08:18:59;;;;;;;;;;;0.50;63.50;;;;;;5085675;28;19923;-67
2022/03/01 08:21:24;;;;;;;;;;;0.50;64.10;;;;;;5085690;28;20127;-68
2022/03/01 08:23:50;;;;;;;;;;;0.50;63.50;;;;;;5085871;28;20107;-67
2022/03/01 08:26:16;;;;;;;;;;;0.60;63.70;;;;;;5086006;28;19962;-67
2022/03/01 08:28:41;;;;;;;;;;;0.80;62.80;;;;;;5085820;28;19919;-67
2022/03/01 08:31:07;;;;;;;;;;;0.90;60.50;;;;;;5085536;28;19939;-67
2022/03/01 08:33:33;;;;;;;;;;;0.90;60.70;;;;;;5085561;28;19908;-67
2022/03/01 08:35:59;;;;;;;;;;;1.00;61.20;;;;;;5085802;28;19931;-67
2022/03/01 08:38:25;;;;;;;;;;;1.10;60.00;;;;;;5084994;28;19920;-67
2022/03/01 08:40:51;;;;;;;;;;;1.20;58.90;;;;;;5083803;28;19984;-67
2022/03/01 08:43:17;;;;;;;;;;;1.30;58.40;;;;;;5085373;28;19908;-67
2022/03/01 08:45:42;;;;;;;;;;;1.40;57.90;;;;;;5085376;28;19915;-67
2022/03/01 08:48:08;;;;;;;;;;;1.50;57.80;;;;;;5085086;28;19919;-67
2022/03/01 08:50:34;;;;;;;;;;;1.50;57.00;;;;;;5083987;28;19986;-67
2022/03/01 08:53:00;;;;;;;;;;;1.70;55.80;;;;;;5081325;28;19920;-69
2022/03/01 08:55:26;;;;;;;;;;;1.70;54.80;;;;;;5073496;28;19909;-69
2022/03/01 08:57:52;;;;;;;;;;;1.80;54.50;;;;;;5076726;28;19908;-71
2022/03/01 09:00:17;;;;;;;;;;;1.80;54.40;;;;;;5083809;28;19979;-66
2022/03/01 09:02:43;;;;;;;;;;;2.10;68.30;;;;;;5084674;28;19971;-73
2022/03/01 09:05:09;;;;;;;;;;;2.30;61.30;;;;;;5084058;28;19923;-69
2022/03/01 09:07:35;;;;;;;;;;;2.40;54.10;;;;;;5083762;28;19908;-69
2022/03/01 09:10:01;;;;;;;;;;;2.30;54.20;;;;;;5082420;28;19952;-70
2022/03/01 09:12:27;;;;;;;;;;;2.40;53.30;;;;;;5083948;28;19908;-70
2022/03/01 09:14:52;;;;;;;;;;;2.40;53.00;;;;;;5084542;28;19908;-70
2022/03/01 09:17:18;;;;;;;;;;;2.50;52.20;;;;;;5083594;28;20235;-70
2022/03/01 09:19:44;;;;;;;;;;;2.40;52.30;;;;;;5084551;28;19916;-69
2022/03/01 09:22:10;;;;;;;;;;;2.50;52.10;;;;;;5084507;28;19908;-66
2022/03/01 09:24:35;;;;;;;;;;;2.50;52.40;;;;;;5084390;28;20153;-68
2022/03/01 09:27:02;;;;;;;;;;;2.50;51.90;;;;;;5084353;28;20276;-71
2022/03/01 09:29:31;;;;;;;;;;;2.50;52.40;;;;;;5084800;28;19965;-71
2022/03/01 09:31:57;;;;;;;;;;;2.50;52.60;;;;;;5083149;28;19908;-70
2022/03/01 09:34:22;;;;;;;;;;;2.70;52.10;;;;;;5084337;28;20107;-72
2022/03/01 09:36:48;;;;;;;;;;;2.80;51.70;;;;;;5066297;28;19915;-71
2022/03/01 09:39:14;;;;;;;;;;;2.80;50.90;;;;;;5082941;28;19993;-71
2022/03/01 09:41:39;;;;;;;;;;;2.80;51.00;;;;;;5083114;28;19908;-72
2022/03/01 09:44:05;;;;;;;;;;;2.90;50.60;;;;;;5084140;28;19980;-70
2022/03/01 09:46:31;;;;;;;;;;;2.90;51.40;;;;;;5084591;28;19962;-70
2022/03/01 09:48:57;;;;;;;;;;;2.90;51.00;;;;;;5084732;28;19935;-71
2022/03/01 09:51:22;;;;;;;;;;;3.00;51.30;;;;;;5085337;28;19912;-72
2022/03/01 09:53:50;;;;;;;;;;;3.10;50.60;;;;;;5082942;28;19947;-70
2022/03/01 09:56:16;;;;;;;;;;;3.20;51.50;;;;;;5082289;28;19912;-70
2022/03/01 09:58:48;;;;;;;;;;;3.20;50.70;;;;;;5084019;28;20115;-70
2022/03/01 10:01:15;;;;;;;;;;;3.30;49.70;;;;;;5082432;28;20211;-70
2022/03/01 10:03:40;;;;;;;;;;;3.40;50.30;;;;;;5082997;28;19916;-72
2022/03/01 10:06:10;;;;;;;;;;;3.40;50.50;;;;;;5083864;28;19908;-72
2022/03/01 10:08:36;;;;;;;;;;;3.60;48.90;;;;;;5066527;28;19919;-72
2022/03/01 10:11:02;;;;;;;;;;;3.70;49.20;;;;;;5069928;28;19940;-72
2022/03/01 10:13:32;;;;;;;;;;;3.80;48.50;;;;;;5062453;28;19909;-72
2022/03/01 10:16:11;;;;;;;;;;;3.80;49.00;;;;;;5062228;28;20111;-72
2022/03/01 10:18:39;;;;;;;;;;;4.00;49.70;;;;;;5063572;28;19955;-72
2022/03/01 10:21:12;;;;;;;;;;;4.20;47.10;;;;;;5045821;28;19978;-75
2022/03/01 10:24:01;;;;;;;;;;;4.40;46.50;;;;;;5063446;28;19932;-72
2022/03/01 10:26:30;;;;;;;;;;;4.50;46.30;;;;;;5079551;28;19908;-72
2022/03/01 10:28:58;;;;;;;;;;;4.60;46.70;;;;;;5083023;28;19912;-72
2022/03/01 10:31:28;;;;;;;;;;;4.90;47.60;;;;;;5083218;28;20115;-72
2022/03/01 10:33:56;;;;;;;;;;;5.00;45.20;;;;;;5082280;28;19908;-72
2022/03/01 10:36:27;;;;;;;;;;;5.10;45.40;;;;;;5084401;28;19932;-72
2022/03/01 10:38:57;;;;;;;;;;;5.20;44.30;;;;;;5066400;28;20276;-73
2022/03/01 10:41:24;;;;;;;;;;;5.40;46.00;;;;;;5074987;28;19909;-77
2022/03/01 10:43:54;;;;;;;;;;;5.60;44.90;;;;;;5070811;28;19909;-77
2022/03/01 10:46:20;;;;;;;;;;;5.80;43.60;;;;;;5064816;28;19970;-77
2022/03/01 10:48:45;;;;;;;;;;;6.00;43.00;;;;;;5062827;28;19916;-78
2022/03/01 10:51:11;;;;;;;;;;;6.30;42.50;;;;;;5062103;28;19980;-72
2022/03/01 10:53:41;;;;;;;;;;;6.40;41.90;;;;;;5062606;28;19908;-72
2022/03/01 10:56:11;;;;;;;;;;;6.60;42.10;;;;;;5061694;28;20068;-73
2022/03/01 10:58:38;;;;;;;;;;;6.80;41.00;;;;;;5076489;28;20200;-74
2022/03/01 11:01:04;;;;;;;;;;;6.80;39.30;;;;;;5064707;28;19908;-74
2022/03/01 11:03:30;;;;;;;;;;;7.00;38.90;;;;;;5065130;28;19993;-75
2022/03/01 11:05:56;;;;;;;;;;;7.40;39.10;;;;;;5082394;28;19912;-76
2022/03/01 11:08:24;;;;;;;;;;;7.70;38.30;;;;;;5082512;28;19913;-74
2022/03/01 11:10:51;;;;;;;;;;;7.80;37.70;;;;;;5061031;28;19908;-74
2022/03/01 11:13:20;;;;;;;;;;;8.10;37.00;;;;;;5061376;28;19909;-75
2022/03/01 11:16:25;;;;;;;;;;;8.60;37.60;;;;;;5061567;28;19979;-75
2022/03/01 11:18:56;;;;;;;;;;;9.10;35.60;;;;;;5078151;28;19909;-74
2022/03/01 11:21:22;;;;;;;;;;;9.10;35.00;;;;;;5077726;28;19909;-76
2022/03/01 11:23:48;;;;;;;;;;;9.50;34.50;;;;;;5060648;28;19980;-77
2022/03/01 11:26:15;;;;;;;;;;;10.50;34.10;;;;;;5077747;28;19909;-73
2022/03/01 11:28:53;;;;;;;;;;;11.60;31.50;;;;;;5067489;28;20146;-73
2022/03/01 11:31:26;;;;;;;;;;;12.90;29.50;;;;;;5060644;28;19909;-72
2022/03/01 11:34:07;;;;;;;;;;;14.60;27.60;;;;;;5077794;28;20150;-73
2022/03/01 11:36:33;;;;;;;;;;;15.90;26.00;;;;;;5061767;28;19988;-73
2022/03/01 11:39:16;;;;;;;;;;;16.80;25.40;;;;;;5064555;28;19912;-73
2022/03/01 11:41:46;;;;;;;;;;;17.60;24.70;;;;;;5063259;28;20091;-73
2022/03/01 11:44:16;;;;;;;;;;;19.10;24.10;;;;;;5080798;28;19915;-71
2022/03/01 11:46:43;;;;;;;;;;;20.70;22.60;;;;;;5081107;28;20199;-72
2022/03/01 11:49:09;;;;;;;;;;;21.00;22.50;;;;;;5081012;28;19923;-72
2022/03/01 11:51:39;;;;;;;;;;;21.80;21.40;;;;;;5080301;28;19916;-72
2022/03/01 11:54:09;;;;;;;;;;;22.00;21.00;;;;;;5080814;28;19916;-72
2022/03/01 11:56:35;;;;;;;;;;;22.80;20.70;;;;;;5080832;28;19921;-72
2022/03/01 11:59:05;;;;;;;;;;;23.20;20.50;;;;;;5064296;28;19908;-72
2022/03/01 12:01:32;;;;;;;;;;;23.00;20.90;;;;;;5081799;28;19913;-72
2022/03/01 12:04:03;;;;;;;;;;;22.20;20.20;;;;;;5080850;28;19970;-72
2022/03/01 12:06:29;;;;;;;;;;;23.50;20.20;;;;;;5080735;28;19936;-72
2022/03/01 12:08:57;;;;;;;;;;;24.60;19.70;;;;;;5063983;28;19965;-72
2022/03/01 12:11:40;;;;;;;;;;;24.80;19.60;;;;;;5081025;28;19909;-75
2022/03/01 12:14:11;;;;;;;;;;;24.80;19.60;;;;;;5072813;28;19908;-74
2022/03/01 12:16:38;;;;;;;;;;;25.80;19.30;;;;;;5062005;28;20023;-74
2022/03/01 12:19:05;;;;;;;;;;;26.30;19.10;;;;;;5061626;28;19999;-74
2022/03/01 12:21:31;;;;;;;;;;;27.10;18.90;;;;;;5060716;28;19909;-74
2022/03/01 12:23:57;;;;;;;;;;;28.40;18.60;;;;;;5060613;28;19916;-75
2022/03/01 12:26:22;;;;;;;;;;;27.80;17.90;;;;;;5061976;28;19908;-74
2022/03/01 12:28:52;;;;;;;;;;;29.10;17.70;;;;;;5060451;28;19913;-74
2022/03/01 12:31:20;;;;;;;;;;;28.40;18.00;;;;;;5061132;28;19917;-74
2022/03/01 12:33:50;;;;;;;;;;;28.30;18.30;;;;;;5060634;28;19913;-73
2022/03/01 12:36:29;;;;;;;;;;;29.30;17.60;;;;;;5060434;28;19916;-73
2022/03/01 12:38:58;;;;;;;;;;;29.30;17.30;;;;;;5063096;28;19920;-74
2022/03/01 12:41:24;;;;;;;;;;;28.50;17.70;;;;;;5081186;28;20019;-74
2022/03/01 12:44:00;;;;;;;;;;;28.70;17.60;;;;;;5068995;28;20211;-73
2022/03/01 12:46:27;;;;;;;;;;;29.20;17.50;;;;;;5079773;28;19909;-74
2022/03/01 12:48:53;;;;;;;;;;;30.20;17.30;;;;;;5082635;28;19979;-74
2022/03/01 12:51:19;;;;;;;;;;;30.20;17.30;;;;;;5083890;28;19915;-74
2022/03/01 12:54:06;;;;;;;;;;;30.00;17.80;;;;;;5067561;28;20107;-74
2022/03/01 12:56:34;;;;;;;;;;;31.00;17.30;;;;;;5068064;28;19915;-74
2022/03/01 12:59:04;;;;;;;;;;;29.50;17.30;;;;;;5084205;28;19920;-73
2022/03/01 13:01:30;;;;;;;;;;;29.00;17.90;;;;;;5067185;28;19908;-74
2022/03/01 13:03:56;;;;;;;;;;;30.50;17.30;;;;;;5085040;28;20249;-73
2022/03/01 13:06:21;;;;;;;;;;;30.80;17.00;;;;;;5085036;28;19915;-74
2022/03/01 13:08:51;;;;;;;;;;;30.60;16.90;;;;;;5083395;28;20100;-74
2022/03/01 13:11:18;;;;;;;;;;;30.30;17.10;;;;;;5084472;28;20219;-74
2022/03/01 13:14:06;;;;;;;;;;;29.30;17.20;;;;;;5077876;28;19912;-74
2022/03/01 13:16:39;;;;;;;;;;;29.00;17.20;;;;;;5063811;28;19908;-74
2022/03/01 13:19:10;;;;;;;;;;;28.80;17.70;;;;;;5063413;28;19932;-74
2022/03/01 13:21:39;;;;;;;;;;;30.60;17.80;;;;;;5063219;28;19939;-75
2022/03/01 13:24:10;;;;;;;;;;;31.30;16.90;;;;;;5064473;28;19916;-74
2022/03/01 13:26:35;;;;;;;;;;;30.80;16.20;;;;;;5063587;28;19909;-74
2022/03/01 13:29:07;;;;;;;;;;;30.40;16.50;;;;;;5064800;28;19913;-74
2022/03/01 13:31:33;;;;;;;;;;;30.50;16.30;;;;;;5064368;28;20107;-74
2022/03/01 13:34:00;;;;;;;;;;;29.70;16.70;;;;;;5064317;28;19924;-74
2022/03/01 13:36:27;;;;;;;;;;;30.20;16.70;;;;;;5064768;28;19913;-74
2022/03/01 13:39:02;;;;;;;;;;;30.70;16.90;;;;;;5063535;28;19913;-74
2022/03/01 13:41:32;;;;;;;;;;;31.00;16.80;;;;;;5082995;28;19908;-73
2022/03/01 13:44:13;;;;;;;;;;;32.00;16.60;;;;;;5082267;28;19980;-74
2022/03/01 13:46:40;;;;;;;;;;;30.80;17.00;;;;;;5075260;28;19917;-74
2022/03/01 13:49:06;;;;;;;;;;;29.50;17.20;;;;;;5079216;28;19954;-74
2022/03/01 13:51:32;;;;;;;;;;;30.30;17.00;;;;;;5062699;28;19909;-74
2022/03/01 13:54:06;;;;;;;;;;;29.60;17.20;;;;;;5079798;28;19951;-74
2022/03/01 13:56:32;;;;;;;;;;;28.60;17.00;;;;;;5064020;28;19908;-73
2022/03/01 13:58:59;;;;;;;;;;;28.10;16.90;;;;;;5069560;28;20200;-74
2022/03/01 14:01:25;;;;;;;;;;;26.30;17.50;;;;;;5083876;28;19914;-74
2022/03/01 14:03:55;;;;;;;;;;;25.70;17.60;;;;;;5084163;28;19908;-73
2022/03/01 14:06:21;;;;;;;;;;;24.60;17.90;;;;;;5066703;28;19983;-73
2022/03/01 14:08:53;;;;;;;;;;;24.10;18.20;;;;;;5082629;28;20199;-73
2022/03/01 14:11:19;;;;;;;;;;;24.30;18.50;;;;;;5081802;28;19939;-74
2022/03/01 14:13:46;;;;;;;;;;;25.10;18.10;;;;;;5082800;28;19916;-74
2022/03/01 14:16:19;;;;;;;;;;;26.30;17.60;;;;;;5066165;28;19975;-74
2022/03/01 14:18:46;;;;;;;;;;;25.80;17.80;;;;;;5083925;28;19924;-74
2022/03/01 14:21:13;;;;;;;;;;;25.70;17.80;;;;;;5082468;28;19972;-74